Time;durP1;ratioP1;P1;durP2;ratioP2;P2;SDS_P1;SDS_P2;PMS_P1;PMS_P2;Temp;Humidity;BMP_temperature;BMP_pressure;BME280_temperature;BME280_humidity;BME280_pressure;Samples;Min_cycle;Max_cycle;Signal;HPM_P1;HPM_P2
2024/03/11 00:02:24;;;;;;;7.67;4.87;;;;;;;10.51;86.51;99504.78;5055501;28;20463;-68
2024/03/11 00:04:51;;;;;;;7.03;3.73;;;;;;;10.55;86.38;99499.50;5055547;28;21014;-68
2024/03/11 00:07:19;;;;;;;11.83;4.60;;;;;;;10.58;86.34;99509.66;5055492;28;20528;-68
2024/03/11 00:09:48;;;;;;;7.80;3.70;;;;;;;10.58;86.41;99510.47;5055756;28;20862;-68
2024/03/11 00:12:17;;;;;;;9.63;4.00;;;;;;;10.58;86.98;99504.25;5055255;28;21077;-68
2024/03/11 00:14:47;;;;;;;12.13;4.67;;;;;;;10.56;86.80;99501.88;5055385;28;20446;-68
2024/03/11 00:17:14;;;;;;;7.43;3.90;;;;;;;10.57;86.85;99510.78;5055698;28;20450;-68
2024/03/11 00:19:40;;;;;;;16.10;5.07;;;;;;;10.58;86.30;99517.78;5055636;28;20439;-68
2024/03/11 00:22:07;;;;;;;7.73;4.10;;;;;;;10.51;87.18;99514.81;5055491;28;20461;-68
2024/03/11 00:24:38;;;;;;;9.27;4.30;;;;;;;10.45;87.18;99510.72;5055760;28;20505;-68
2024/03/11 00:27:08;;;;;;;8.80;4.93;;;;;;;10.44;87.36;99522.63;5055481;28;20423;-68
2024/03/11 00:29:36;;;;;;;11.70;5.00;;;;;;;10.38;88.26;99522.03;5055414;28;20423;-68
2024/03/11 00:32:05;;;;;;;11.30;5.17;;;;;;;10.38;88.63;99521.25;5055169;28;20522;-68
2024/03/11 00:34:32;;;;;;;9.00;4.40;;;;;;;10.39;88.63;99530.94;5055339;28;20460;-68
2024/03/11 00:36:59;;;;;;;10.90;4.93;;;;;;;10.44;88.55;99528.06;5055253;28;20438;-68
2024/03/11 00:39:26;;;;;;;9.30;4.63;;;;;;;10.44;88.95;99519.94;5055040;28;20442;-68
2024/03/11 00:41:54;;;;;;;7.23;4.10;;;;;;;10.46;88.73;99523.91;5055062;28;20439;-66
2024/03/11 00:44:21;;;;;;;10.07;4.60;;;;;;;10.44;89.00;99533.47;5055121;28;20517;-65
2024/03/11 00:46:49;;;;;;;8.20;4.13;;;;;;;10.45;88.94;99518.84;5054470;28;20441;-66
2024/03/11 00:49:16;;;;;;;8.97;4.13;;;;;;;10.43;88.73;99512.94;5055029;28;20438;-66
2024/03/11 00:51:42;;;;;;;10.90;4.67;;;;;;;10.43;89.01;99512.94;5055407;28;20845;-67
2024/03/11 00:54:09;;;;;;;18.80;5.17;;;;;;;10.41;89.53;99517.91;5055003;28;20444;-67
2024/03/11 00:56:35;;;;;;;10.70;4.23;;;;;;;10.40;90.02;99508.16;5055205;28;20450;-67
2024/03/11 00:59:04;;;;;;;8.27;4.30;;;;;;;10.39;90.45;99512.78;5055010;28;20542;-67
2024/03/11 01:01:31;;;;;;;7.80;4.00;;;;;;;10.41;90.56;99502.44;5055144;28;20488;-67
2024/03/11 01:03:58;;;;;;;11.90;5.10;;;;;;;10.43;90.58;99499.41;5054419;28;20501;-67
2024/03/11 01:06:25;;;;;;;10.73;4.67;;;;;;;10.47;90.30;99497.63;5054713;28;20446;-67
2024/03/11 01:08:51;;;;;;;9.43;4.80;;;;;;;10.46;90.72;99501.47;5054669;28;20470;-67
2024/03/11 01:11:18;;;;;;;10.63;4.67;;;;;;;10.42;91.06;99489.69;5054260;28;20517;-67
2024/03/11 01:13:45;;;;;;;12.17;5.23;;;;;;;10.44;91.10;99493.66;5054423;28;20462;-67
2024/03/11 01:16:13;;;;;;;9.50;4.73;;;;;;;10.50;90.57;99494.28;5054575;28;20493;-67
2024/03/11 01:18:40;;;;;;;11.37;4.50;;;;;;;10.50;91.01;99488.88;5054479;28;20475;-67
2024/03/11 01:21:07;;;;;;;10.60;4.40;;;;;;;10.53;90.91;99483.56;5054444;28;20434;-67
2024/03/11 01:26:06;;;;;;;13.17;4.07;;;;;;;10.46;91.46;99471.69;5031987;28;20463;-65
2024/03/11 01:28:33;;;;;;;6.93;3.50;;;;;;;10.45;91.16;99472.81;5034321;28;20435;-65
2024/03/11 01:30:59;;;;;;;6.70;3.87;;;;;;;10.40;91.71;99470.28;5034238;28;20565;-65
2024/03/11 01:33:27;;;;;;;7.40;3.73;;;;;;;10.38;91.81;99465.19;5034106;28;20538;-65
2024/03/11 01:35:54;;;;;;;13.07;3.80;;;;;;;10.32;92.56;99470.00;5034230;28;20462;-65
2024/03/11 01:38:21;;;;;;;8.40;4.63;;;;;;;10.32;92.05;99474.63;5034206;28;20490;-65
2024/03/11 01:40:47;;;;;;;9.63;5.60;;;;;;;10.25;92.48;99479.75;5034085;28;20439;-65
2024/03/11 01:43:14;;;;;;;9.93;4.63;;;;;;;10.18;92.43;99477.53;5033989;28;20557;-65
2024/03/11 01:45:42;;;;;;;9.20;3.53;;;;;;;10.13;92.62;99476.91;5033815;28;20443;-65
2024/03/11 01:48:09;;;;;;;8.20;3.70;;;;;;;10.07;93.09;99482.50;5034277;28;20451;-65
2024/03/11 01:50:38;;;;;;;7.90;4.63;;;;;;;10.06;93.46;99488.25;5033597;28;20451;-64
2024/03/11 01:53:05;;;;;;;8.27;4.20;;;;;;;9.98;93.82;99489.06;5034001;28;20469;-65
2024/03/11 01:55:32;;;;;;;10.60;4.73;;;;;;;9.99;93.52;99494.13;5033581;28;20861;-65
2024/03/11 01:58:01;;;;;;;9.80;5.00;;;;;;;9.95;93.96;99495.09;5033273;28;20520;-65
2024/03/11 02:00:28;;;;;;;10.00;3.93;;;;;;;9.93;94.27;99494.66;5033284;28;20962;-65
2024/03/11 02:02:55;;;;;;;12.70;4.77;;;;;;;9.94;94.51;99493.53;5033679;28;20459;-65
2024/03/11 02:05:24;;;;;;;10.23;4.43;;;;;;;9.93;94.66;99478.44;5033402;28;20948;-65
2024/03/11 02:07:56;;;;;;;9.60;4.53;;;;;;;9.92;95.07;99471.44;5033676;28;20550;-64
2024/03/11 02:10:23;;;;;;;8.90;3.57;;;;;;;9.86;95.38;99474.28;5033689;28;20513;-64
2024/03/11 02:12:51;;;;;;;13.30;4.80;;;;;;;9.85;95.91;99471.91;5033502;28;20487;-64
2024/03/11 02:15:18;;;;;;;7.90;4.10;;;;;;;9.88;95.93;99484.00;5033274;28;20450;-64
2024/03/11 02:17:45;;;;;;;10.50;5.10;;;;;;;9.93;95.82;99473.03;5033566;28;20445;-64
2024/03/11 02:20:16;;;;;;;14.90;4.20;;;;;;;9.94;95.96;99472.69;5033558;28;20497;-64
2024/03/11 02:22:45;;;;;;;8.20;3.97;;;;;;;10.00;95.89;99476.78;5033134;28;21014;-64
2024/03/11 02:25:14;;;;;;;7.07;3.50;;;;;;;10.02;95.90;99482.69;5046109;28;20447;-64
2024/03/11 02:27:41;;;;;;;9.40;4.33;;;;;;;10.05;95.81;99473.13;5053221;28;20942;-64
2024/03/11 02:30:08;;;;;;;9.70;3.93;;;;;;;10.07;95.75;99479.00;5053030;28;20438;-65
2024/03/11 02:32:35;;;;;;;7.27;3.40;;;;;;;10.09;95.76;99482.97;5052820;28;20857;-64
2024/03/11 02:35:02;;;;;;;8.33;4.17;;;;;;;10.14;95.54;99482.00;5052976;28;20934;-63
2024/03/11 02:37:29;;;;;;;8.90;4.43;;;;;;;10.21;95.23;99490.41;5053217;28;20442;-64
2024/03/11 02:39:56;;;;;;;8.40;3.93;;;;;;;10.23;95.27;99490.09;5053476;28;20434;-64
2024/03/11 02:42:25;;;;;;;14.97;4.53;;;;;;;10.24;95.18;99483.56;5053163;28;20486;-64
2024/03/11 02:44:51;;;;;;;8.13;3.70;;;;;;;10.26;95.06;99490.25;5053433;28;20435;-65
2024/03/11 02:47:18;;;;;;;8.10;4.73;;;;;;;10.27;95.02;99489.13;5052815;28;20452;-65
2024/03/11 02:49:45;;;;;;;8.97;3.40;;;;;;;10.26;95.16;99490.25;5052886;28;20803;-66
2024/03/11 02:52:11;;;;;;;9.03;3.87;;;;;;;10.29;94.56;99492.31;5052933;28;20482;-65
2024/03/11 02:54:38;;;;;;;12.73;4.77;;;;;;;10.30;94.37;99491.19;5052836;28;20445;-65
2024/03/11 02:57:05;;;;;;;11.73;4.17;;;;;;;10.31;93.91;99490.06;5053076;28;20537;-64
2024/03/11 02:59:33;;;;;;;10.67;5.13;;;;;;;10.30;93.57;99484.97;5053178;28;20440;-65
2024/03/11 03:02:00;;;;;;;12.70;4.57;;;;;;;10.26;93.79;99479.41;5052973;28;20434;-65
2024/03/11 03:04:27;;;;;;;17.40;4.00;;;;;;;10.29;93.69;99481.47;5052763;28;20466;-64
2024/03/11 03:06:57;;;;;;;6.60;3.80;;;;;;;10.30;94.30;99476.84;5052702;28;20472;-64
2024/03/11 03:09:24;;;;;;;6.30;4.00;;;;;;;10.30;94.42;99469.53;5052994;28;20837;-64
2024/03/11 03:11:51;;;;;;;7.80;3.87;;;;;;;10.30;94.94;99474.16;5056748;28;20508;-65
2024/03/11 03:14:17;;;;;;;9.40;3.97;;;;;;;10.34;94.82;99469.66;5056944;28;20473;-64
2024/03/11 03:16:45;;;;;;;8.80;3.90;;;;;;;10.38;94.93;99472.53;5056742;28;20438;-64
2024/03/11 03:19:12;;;;;;;8.83;3.70;;;;;;;10.38;95.12;99469.81;5056701;28;20441;-64
2024/03/11 03:21:38;;;;;;;8.30;4.10;;;;;;;10.33;95.44;99477.00;5056664;28;20465;-64
2024/03/11 03:24:06;;;;;;;9.83;4.13;;;;;;;10.32;95.72;99478.13;5056802;28;20470;-65
2024/03/11 03:26:32;;;;;;;11.33;5.13;;;;;;;10.34;95.67;99480.50;5056645;28;20423;-65
2024/03/11 03:28:59;;;;;;;7.57;3.87;;;;;;;10.37;95.90;99476.34;5056600;28;20442;-66
2024/03/11 03:31:27;;;;;;;7.47;3.77;;;;;;;10.35;96.00;99477.44;5056132;28;20478;-66
2024/03/11 03:33:55;;;;;;;9.43;4.53;;;;;;;10.34;96.49;99473.16;5056427;28;20472;-66
2024/03/11 03:36:21;;;;;;;7.80;4.10;;;;;;;10.34;96.37;99475.88;5056141;28;20535;-66
2024/03/11 03:38:48;;;;;;;10.27;5.27;;;;;;;10.33;96.67;99471.59;5056322;28;20529;-66
2024/03/11 03:41:15;;;;;;;7.97;4.37;;;;;;;10.34;96.70;99475.09;5056363;28;20533;-66
2024/03/11 03:43:41;;;;;;;13.13;4.80;;;;;;;10.33;96.66;99477.00;5056127;28;20536;-66
2024/03/11 03:46:08;;;;;;;11.63;4.90;;;;;;;10.31;97.09;99484.66;5056208;28;20450;-66
2024/03/11 03:48:35;;;;;;;8.00;4.43;;;;;;;10.34;97.03;99486.69;5055902;28;20992;-66
2024/03/11 03:51:04;;;;;;;8.70;4.63;;;;;;;10.34;97.02;99486.69;5056014;28;20525;-66
2024/03/11 03:53:30;;;;;;;10.80;3.77;;;;;;;10.33;97.21;99478.91;5055960;28;20482;-66
2024/03/11 03:55:57;;;;;;;7.53;4.47;;;;;;;10.39;96.94;99480.31;5056010;28;20534;-66
2024/03/11 03:58:24;;;;;;;9.80;3.00;;;;;;;10.37;96.66;99481.78;5056019;28;20446;-66
2024/03/11 04:00:50;;;;;;;8.97;3.50;;;;;;;10.32;96.65;99480.03;5056000;28;20530;-66
2024/03/11 04:03:20;;;;;;;7.80;4.67;;;;;;;10.33;96.71;99489.75;5055493;28;21053;-66
2024/03/11 04:05:48;;;;;;;9.60;3.90;;;;;;;10.29;97.21;99481.47;5055881;28;20446;-66
2024/03/11 04:08:16;;;;;;;7.10;4.20;;;;;;;10.32;97.12;99478.13;5055828;28;20537;-66
2024/03/11 04:10:43;;;;;;;9.90;3.67;;;;;;;10.31;96.69;99478.44;5056004;28;20524;-66
2024/03/11 04:13:12;;;;;;;6.77;3.93;;;;;;;10.30;97.21;99474.94;5055211;28;20488;-66
2024/03/11 04:15:40;;;;;;;7.70;3.33;;;;;;;10.27;97.35;99491.84;5055665;28;20541;-66
2024/03/11 04:18:10;;;;;;;9.67;4.17;;;;;;;10.25;97.43;99488.66;5056013;28;20533;-66
2024/03/11 04:20:37;;;;;;;8.67;4.30;;;;;;;10.28;97.35;99490.72;5055277;28;20806;-66
2024/03/11 04:23:07;;;;;;;6.07;3.00;;;;;;;10.24;97.63;99495.19;5054658;28;20458;-66
2024/03/11 04:25:37;;;;;;;9.47;3.73;;;;;;;10.29;98.00;99500.41;5055126;28;20469;-66
2024/03/11 04:28:05;;;;;;;8.33;3.70;;;;;;;10.34;97.72;99507.56;5055588;28;20457;-65
2024/03/11 04:30:33;;;;;;;6.30;4.00;;;;;;;10.39;97.53;99510.09;5055427;28;20491;-65
2024/03/11 04:33:01;;;;;;;9.27;4.30;;;;;;;10.43;97.09;99512.94;5055219;28;20486;-65
2024/03/11 04:35:29;;;;;;;8.70;3.70;;;;;;;10.37;97.81;99508.84;5055493;28;20439;-65
2024/03/11 04:37:58;;;;;;;8.30;4.90;;;;;;;10.36;97.83;99502.63;5055014;28;20474;-65
2024/03/11 04:40:25;;;;;;;8.60;3.73;;;;;;;10.37;97.69;99503.44;5055033;28;20561;-65
2024/03/11 04:42:54;;;;;;;8.00;3.93;;;;;;;10.37;97.91;99514.25;5055037;28;20462;-65
2024/03/11 04:45:21;;;;;;;11.17;4.13;;;;;;;10.35;97.99;99515.34;5054823;28;20439;-65
2024/03/11 04:47:48;;;;;;;13.80;4.50;;;;;;;10.39;97.72;99517.41;5055069;28;20438;-65
2024/03/11 04:50:24;;;;;;;10.43;4.10;;;;;;;10.37;98.00;99520.47;5055024;28;20542;-65
2024/03/11 04:52:51;;;;;;;8.00;3.40;;;;;;;10.37;97.96;99519.66;5054799;28;20482;-65
2024/03/11 04:55:17;;;;;;;9.17;4.57;;;;;;;10.34;97.89;99527.31;5055114;28;20525;-65
2024/03/11 04:57:45;;;;;;;8.57;3.80;;;;;;;10.34;98.14;99524.59;5054849;28;20466;-65
2024/03/11 05:00:14;;;;;;;7.90;4.30;;;;;;;10.38;98.03;99521.25;5054848;28;20439;-66
2024/03/11 05:02:41;;;;;;;7.83;3.83;;;;;;;10.42;97.85;99527.59;5054763;28;20541;-65
2024/03/11 05:05:09;;;;;;;7.00;3.57;;;;;;;10.43;97.78;99523.75;5054723;28;20527;-67
2024/03/11 05:07:36;;;;;;;12.90;4.23;;;;;;;10.42;97.40;99524.88;5054732;28;20439;-66
2024/03/11 05:10:03;;;;;;;10.30;4.60;;;;;;;10.41;97.28;99520.59;5054613;28;20516;-68
2024/03/11 05:12:31;;;;;;;13.80;5.10;;;;;;;10.38;97.28;99532.06;5054206;28;20490;-71
2024/03/11 05:14:58;;;;;;;7.50;4.00;;;;;;;10.33;97.23;99531.13;5054587;28;20437;-67
2024/03/11 05:17:26;;;;;;;8.70;4.53;;;;;;;10.38;97.13;99527.44;5054608;28;20443;-68
2024/03/11 05:19:53;;;;;;;8.03;4.20;;;;;;;10.38;96.68;99522.03;5054520;28;20470;-68
2024/03/11 05:22:23;;;;;;;5.40;3.20;;;;;;;10.37;96.25;99525.06;5054325;28;20462;-68
2024/03/11 05:24:50;;;;;;;8.23;3.27;;;;;;;10.32;96.24;99529.56;5054104;28;20476;-67
2024/03/11 05:27:17;;;;;;;6.50;4.00;;;;;;;10.29;97.02;99527.50;5054344;28;20533;-67
2024/03/11 05:29:44;;;;;;;6.63;3.17;;;;;;;10.28;97.72;99525.91;5053998;28;20934;-66
2024/03/11 05:32:11;;;;;;;8.90;4.57;;;;;;;10.33;97.76;99524.94;5054410;28;20524;-66
2024/03/11 05:34:42;;;;;;;7.77;3.10;;;;;;;10.36;97.72;99535.13;5054205;28;20485;-67
2024/03/11 05:37:09;;;;;;;10.57;4.50;;;;;;;10.41;98.17;99539.56;5054134;28;20458;-67
2024/03/11 05:39:35;;;;;;;9.47;4.57;;;;;;;10.41;98.30;99544.97;5054324;28;20477;-66
2024/03/11 05:42:05;;;;;;;10.00;4.60;;;;;;;10.43;98.85;99553.53;5053734;28;20474;-66
2024/03/11 05:44:32;;;;;;;8.53;3.60;;;;;;;10.42;98.85;99551.97;5054083;28;20473;-66
2024/03/11 05:46:59;;;;;;;6.50;3.77;;;;;;;10.43;99.14;99554.34;5053840;28;20945;-66
2024/03/11 05:49:28;;;;;;;7.33;4.43;;;;;;;10.45;98.91;99556.75;5053920;28;20449;-66
2024/03/11 05:51:56;;;;;;;8.20;4.83;;;;;;;10.44;99.30;99561.31;5053776;28;20444;-66
2024/03/11 05:54:24;;;;;;;10.17;4.80;;;;;;;10.44;99.26;99572.16;5053788;28;20525;-66
2024/03/11 05:56:56;;;;;;;8.07;4.20;;;;;;;10.43;98.91;99567.06;5053745;28;20446;-66
2024/03/11 05:59:23;;;;;;;5.80;3.67;;;;;;;10.47;99.25;99565.31;5053513;28;20488;-66
2024/03/11 06:01:50;;;;;;;8.17;4.83;;;;;;;10.50;98.74;99568.16;5053642;28;20541;-66
2024/03/11 06:04:16;;;;;;;9.33;3.73;;;;;;;10.55;98.41;99567.97;5053415;28;20438;-66
2024/03/11 06:06:44;;;;;;;6.53;3.90;;;;;;;10.54;99.03;99569.09;5053344;28;20528;-66
2024/03/11 06:09:14;;;;;;;8.13;4.17;;;;;;;10.57;98.56;99573.06;5069242;28;20446;-65
2024/03/11 06:11:41;;;;;;;8.80;4.13;;;;;;;10.59;98.49;99571.63;5055884;28;20446;-65
2024/03/11 06:14:09;;;;;;;21.60;4.50;;;;;;;10.59;98.66;99573.53;5053204;28;20490;-66
2024/03/11 06:16:37;;;;;;;10.50;4.30;;;;;;;10.57;98.50;99568.44;5053371;28;20450;-67
2024/03/11 06:19:04;;;;;;;7.00;3.90;;;;;;;10.56;98.30;99558.72;5053197;28;20933;-67
2024/03/11 06:21:31;;;;;;;8.90;4.43;;;;;;;10.52;98.56;99563.22;5053403;28;20449;-67
2024/03/11 06:23:59;;;;;;;8.43;4.37;;;;;;;10.58;98.18;99564.63;5053100;28;20524;-67
2024/03/11 06:26:27;;;;;;;6.40;4.00;;;;;;;10.62;97.76;99564.75;5053446;28;20429;-67
2024/03/11 06:28:55;;;;;;;6.50;4.23;;;;;;;10.53;98.07;99580.25;5053401;28;20533;-67
2024/03/11 06:31:22;;;;;;;8.73;4.80;;;;;;;10.57;98.10;99579.28;5053304;28;20476;-67
2024/03/11 06:33:50;;;;;;;11.20;4.73;;;;;;;10.63;98.25;99579.91;5053120;28;20514;-68
2024/03/11 06:36:17;;;;;;;9.27;4.40;;;;;;;10.68;98.04;99578.91;5053208;28;20917;-67
2024/03/11 06:38:44;;;;;;;5.83;4.10;;;;;;;10.69;97.57;99592.13;5053106;28;20473;-67
2024/03/11 06:41:11;;;;;;;6.60;3.77;;;;;;;10.69;97.32;99592.13;5053171;28;20446;-67
2024/03/11 06:43:39;;;;;;;12.53;5.03;;;;;;;10.68;97.58;99590.53;5053116;28;20894;-67
2024/03/11 06:46:06;;;;;;;8.77;4.23;;;;;;;10.67;98.01;99599.78;5056345;28;20446;-67
2024/03/11 06:48:32;;;;;;;9.07;4.20;;;;;;;10.70;98.44;99598.34;5057386;28;20852;-67
2024/03/11 06:50:59;;;;;;;9.53;4.90;;;;;;;10.73;98.25;99603.91;5057281;28;20533;-67
2024/03/11 06:53:25;;;;;;;7.60;4.37;;;;;;;10.73;98.54;99609.31;5057087;28;20559;-67
2024/03/11 06:55:52;;;;;;;12.53;6.57;;;;;;;10.69;98.97;99613.78;5057135;28;20442;-67
2024/03/11 06:58:19;;;;;;;7.30;4.00;;;;;;;10.74;98.90;99621.72;5057118;28;20473;-67
2024/03/11 07:00:47;;;;;;;10.57;4.50;;;;;;;10.78;98.87;99611.84;5056762;28;20520;-67
2024/03/11 07:03:14;;;;;;;4.43;3.07;;;;;;;10.79;98.49;99618.03;5057015;28;20454;-67
2024/03/11 07:05:42;;;;;;;7.13;3.80;;;;;;;10.79;98.83;99615.34;5039200;28;20473;-67
2024/03/11 07:08:09;;;;;;;7.13;4.10;;;;;;;10.86;98.69;99621.84;5056648;28;20445;-67
2024/03/11 07:10:35;;;;;;;11.10;4.87;;;;;;;10.89;98.36;99623.13;5057211;28;20925;-67
2024/03/11 07:13:02;;;;;;;10.63;6.17;;;;;;;10.91;98.25;99620.88;5056386;28;21015;-67
2024/03/11 07:15:29;;;;;;;8.93;5.23;;;;;;;10.97;98.15;99621.47;5056867;28;20442;-67
2024/03/11 07:17:58;;;;;;;7.67;4.27;;;;;;;11.02;97.83;99632.09;5056757;28;20535;-67
2024/03/11 07:20:25;;;;;;;7.73;4.17;;;;;;;10.95;97.89;99623.72;5056671;28;20453;-67
2024/03/11 07:22:52;;;;;;;7.63;4.60;;;;;;;10.99;97.90;99622.72;5056673;28;20966;-67
2024/03/11 07:25:19;;;;;;;6.10;3.30;;;;;;;11.06;97.38;99628.41;5085487;22;21008;-68
2024/03/11 07:27:47;;;;;;;9.70;5.13;;;;;;;11.10;96.25;99625.84;5076569;28;20441;-68
2024/03/11 07:30:18;;;;;;;7.70;4.00;;;;;;;11.14;96.36;99617.88;5076577;28;20467;-68
2024/03/11 07:32:45;;;;;;;7.70;3.90;;;;;;;11.19;96.42;99628.50;5076432;28;20568;-68
2024/03/11 07:35:14;;;;;;;7.17;4.20;;;;;;;11.26;95.88;99643.13;5076919;28;20449;-69
2024/03/11 07:37:41;;;;;;;6.87;4.30;;;;;;;11.32;95.22;99627.47;5076223;28;20445;-69
2024/03/11 07:40:11;;;;;;;10.20;4.80;;;;;;;11.36;94.62;99628.41;5077048;28;20809;-68
2024/03/11 07:42:38;;;;;;;10.03;5.17;;;;;;;11.36;94.86;99633.81;5076709;28;20461;-68
2024/03/11 07:45:10;;;;;;;11.73;3.70;;;;;;;11.42;94.73;99637.94;5076142;28;20479;-69
2024/03/11 07:47:37;;;;;;;19.10;4.80;;;;;;;11.42;95.28;99639.84;5076399;28;20425;-68
2024/03/11 07:50:05;;;;;;;11.30;5.30;;;;;;;11.48;94.76;99643.97;5076183;28;20444;-68
2024/03/11 07:52:34;;;;;;;6.80;4.03;;;;;;;11.48;94.81;99649.38;5075985;28;20468;-69
2024/03/11 07:55:02;;;;;;;7.27;3.93;;;;;;;11.47;95.14;99659.44;5076145;28;20441;-69
2024/03/11 07:57:29;;;;;;;11.83;4.70;;;;;;;11.52;94.68;99656.53;5074633;28;20445;-67
2024/03/11 07:59:56;;;;;;;7.80;4.60;;;;;;;11.56;95.00;99653.94;5075665;28;20953;-67
2024/03/11 08:02:22;;;;;;;8.80;4.33;;;;;;;11.54;94.92;99664.31;5075911;28;20526;-66
2024/03/11 08:04:49;;;;;;;18.07;5.13;;;;;;;11.56;94.80;99670.22;5075559;28;20512;-67
2024/03/11 08:07:16;;;;;;;5.07;3.10;;;;;;;11.55;95.06;99669.44;5075884;28;20441;-67
2024/03/11 08:09:44;;;;;;;7.90;4.77;;;;;;;11.56;95.16;99675.66;5075812;28;20439;-68
2024/03/11 08:12:10;;;;;;;8.40;4.23;;;;;;;11.61;95.17;99689.00;5075733;28;20465;-67
2024/03/11 08:14:37;;;;;;;6.57;4.17;;;;;;;11.60;95.01;99696.38;5075640;28;20483;-67
2024/03/11 08:17:06;;;;;;;7.93;4.53;;;;;;;11.61;94.83;99691.72;5075704;28;20438;-67
2024/03/11 08:19:33;;;;;;;7.30;4.83;;;;;;;11.61;94.94;99691.72;5075933;28;20446;-68
2024/03/11 08:21:59;;;;;;;10.67;4.70;;;;;;;11.64;94.30;99701.91;5075516;28;20438;-67
2024/03/11 08:24:26;;;;;;;8.97;5.13;;;;;;;11.59;94.90;99702.09;5075370;28;20456;-68
2024/03/11 08:26:54;;;;;;;9.33;4.17;;;;;;;11.63;94.76;99697.59;5075153;28;20441;-68
2024/03/11 08:29:21;;;;;;;10.20;5.23;;;;;;;11.71;94.06;99706.81;5075594;28;20433;-68
2024/03/11 08:31:47;;;;;;;10.13;4.33;;;;;;;11.77;93.69;99710.91;5075098;28;20469;-68
2024/03/11 08:34:14;;;;;;;10.40;4.50;;;;;;;11.86;93.78;99712.50;5075015;28;21000;-68
2024/03/11 08:36:42;;;;;;;9.00;4.00;;;;;;;11.92;93.54;99717.72;5075714;28;20546;-67
2024/03/11 08:39:10;;;;;;;9.00;4.33;;;;;;;11.95;92.77;99717.81;5074970;28;20924;-67
2024/03/11 08:41:37;;;;;;;12.07;4.70;;;;;;;11.98;91.94;99716.38;5075217;28;20449;-67
2024/03/11 08:44:07;;;;;;;8.17;4.70;;;;;;;11.96;92.26;99724.84;5075258;28;20536;-68
2024/03/11 08:46:34;;;;;;;9.63;4.90;;;;;;;12.00;91.90;99727.72;5074807;28;20816;-67
2024/03/11 08:49:01;;;;;;;14.70;5.87;;;;;;;11.99;91.76;99724.19;5075106;28;20520;-68
2024/03/11 08:51:27;;;;;;;11.30;5.60;;;;;;;11.97;91.71;99718.28;5075233;28;20512;-66
2024/03/11 08:53:54;;;;;;;11.80;4.90;;;;;;;11.93;92.43;99724.72;5074549;28;20999;-70
2024/03/11 08:56:21;;;;;;;8.73;4.77;;;;;;;11.99;92.39;99731.53;5074922;28;20529;-68
2024/03/11 08:58:50;;;;;;;8.90;4.80;;;;;;;12.04;91.99;99740.28;5074826;28;20447;-69
2024/03/11 09:01:19;;;;;;;11.83;4.77;;;;;;;12.07;91.76;99744.25;5074438;28;20945;-67
2024/03/11 09:03:46;;;;;;;9.57;5.90;;;;;;;12.14;91.31;99741.00;5074409;28;20457;-68
2024/03/11 09:06:12;;;;;;;9.97;5.40;;;;;;;12.18;90.97;99752.78;5074802;28;20440;-68
2024/03/11 09:08:39;;;;;;;9.57;4.93;;;;;;;12.22;91.07;99757.22;5074204;28;20499;-67
2024/03/11 09:11:06;;;;;;;12.13;6.23;;;;;;;12.25;90.57;99753.81;5074717;28;20437;-67
2024/03/11 09:13:33;;;;;;;12.73;6.23;;;;;;;12.29;90.38;99759.41;5075028;28;20531;-67
2024/03/11 09:16:00;;;;;;;10.70;5.57;;;;;;;12.40;89.48;99759.81;5074981;28;20437;-68
2024/03/11 09:18:28;;;;;;;11.03;5.37;;;;;;;12.44;89.11;99757.97;5074211;28;20469;-67
2024/03/11 09:20:55;;;;;;;11.33;6.80;;;;;;;12.49;88.89;99755.06;5074451;28;20437;-67
2024/03/11 09:23:22;;;;;;;16.23;7.20;;;;;;;12.55;88.64;99759.94;5074329;28;20827;-67
2024/03/11 09:25:49;;;;;;;11.90;5.80;;;;;;;12.55;88.20;99767.31;5074165;28;20449;-67
2024/03/11 09:28:17;;;;;;;11.77;7.10;;;;;;;12.59;87.13;99765.53;5074295;28;20524;-68
2024/03/11 09:30:44;;;;;;;9.73;5.83;;;;;;;12.64;86.75;99773.47;5074206;28;20532;-68
2024/03/11 09:33:11;;;;;;;11.33;6.40;;;;;;;12.70;86.32;99782.97;5073984;28;20818;-68
2024/03/11 09:35:39;;;;;;;9.03;4.83;;;;;;;12.83;84.32;99770.22;5074206;28;20469;-68
2024/03/11 09:38:06;;;;;;;10.20;5.60;;;;;;;13.02;84.23;99786.03;5074283;28;20511;-67
2024/03/11 09:40:32;;;;;;;10.53;6.07;;;;;;;13.16;84.06;99780.28;5074240;28;20832;-67
2024/03/11 09:43:00;;;;;;;18.83;8.47;;;;;;;13.29;81.20;99790.84;5073626;28;20996;-67
2024/03/11 09:45:29;;;;;;;16.43;7.80;;;;;;;13.34;80.62;99793.34;5073979;28;20437;-67
2024/03/11 09:47:57;;;;;;;17.23;7.37;;;;;;;13.35;79.18;99811.25;5074291;28;20441;-67
2024/03/11 09:50:27;;;;;;;17.00;8.30;;;;;;;13.32;80.58;99803.75;5073955;28;20445;-67
2024/03/11 09:52:58;;;;;;;15.87;8.00;;;;;;;13.34;80.31;99812.38;5073563;28;20557;-67
2024/03/11 09:55:28;;;;;;;13.80;7.27;;;;;;;13.35;79.73;99833.00;5073831;28;20465;-67
2024/03/11 09:57:59;;;;;;;13.90;7.10;;;;;;;13.31;79.64;99828.59;5073508;28;20784;-67
2024/03/11 10:00:27;;;;;;;16.90;7.60;;;;;;;13.38;79.91;99826.09;5074147;28;20517;-67
2024/03/11 10:03:00;;;;;;;14.43;7.13;;;;;;;13.59;80.12;99837.69;5073767;28;20461;-67
2024/03/11 10:05:27;;;;;;;12.90;6.50;;;;;;;13.65;77.67;99845.63;5073808;28;20417;-68
2024/03/11 10:07:54;;;;;;;16.53;8.20;;;;;;;13.67;75.88;99846.06;5073362;28;20949;-68
2024/03/11 10:10:24;;;;;;;14.63;7.50;;;;;;;13.59;76.22;99845.84;5073447;28;20448;-68
2024/03/11 10:12:52;;;;;;;13.17;7.60;;;;;;;13.58;75.70;99846.19;5073734;28;20550;-67
2024/03/11 10:15:30;;;;;;;13.27;7.10;;;;;;;13.48;77.65;99849.34;5073535;28;20489;-67
2024/03/11 10:18:01;;;;;;;11.97;7.00;;;;;;;13.59;77.10;99851.31;5073346;28;20852;-67
2024/03/11 10:20:29;;;;;;;13.13;7.37;;;;;;;13.70;75.93;99854.34;5072988;28;20433;-67
2024/03/11 10:23:06;;;;;;;14.63;6.80;;;;;;;13.75;76.28;99850.63;5073535;28;20457;-67
2024/03/11 10:25:34;;;;;;;12.60;6.90;;;;;;;13.80;76.24;99856.63;5073386;28;20456;-67
2024/03/11 10:28:03;;;;;;;10.33;6.07;;;;;;;13.91;76.03;99861.63;5073156;28;21028;-67
2024/03/11 10:30:32;;;;;;;18.67;7.17;;;;;;;13.99;74.24;99864.25;5073140;28;20607;-67
2024/03/11 10:33:01;;;;;;;15.23;8.00;;;;;;;14.06;75.44;99863.66;5073611;28;20450;-67
2024/03/11 10:35:33;;;;;;;17.67;7.50;;;;;;;14.15;74.60;99875.22;5073419;28;20488;-67
2024/03/11 10:38:08;;;;;;;14.20;6.60;;;;;;;14.08;72.52;99875.81;5073444;28;20475;-67
2024/03/11 10:40:38;;;;;;;13.50;7.20;;;;;;;14.08;73.15;99875.00;5073304;28;20431;-67
2024/03/11 10:43:20;;;;;;;11.07;7.00;;;;;;;14.11;71.50;99868.84;5072960;28;20474;-67
2024/03/11 10:45:47;;;;;;;14.73;6.83;;;;;;;14.03;73.89;99875.22;5073373;28;20441;-67
2024/03/11 10:48:15;;;;;;;11.13;6.73;;;;;;;14.13;74.14;99872.06;5073249;28;20429;-67
2024/03/11 10:50:42;;;;;;;13.17;6.57;;;;;;;14.20;72.39;99885.88;5073286;28;20441;-68
2024/03/11 10:53:12;;;;;;;11.87;6.57;;;;;;;14.22;69.93;99883.63;5073213;28;20464;-70
2024/03/11 10:55:42;;;;;;;13.77;6.30;;;;;;;14.06;70.50;99885.44;5073184;28;20491;-69
2024/03/11 10:58:13;;;;;;;15.43;6.13;;;;;;;14.03;70.36;99894.28;5073376;28;20445;-67
2024/03/11 11:00:43;;;;;;;18.00;6.73;;;;;;;13.91;71.21;99886.13;5073314;28;20437;-68
2024/03/11 11:03:13;;;;;;;14.93;6.13;;;;;;;13.96;72.74;99894.84;5073179;28;20556;-67
2024/03/11 11:05:48;;;;;;;14.97;5.77;;;;;;;14.06;72.49;99886.22;5072873;28;20785;-68
2024/03/11 11:08:15;;;;;;;11.70;7.37;;;;;;;14.17;71.48;99891.22;5072815;28;20791;-68
2024/03/11 11:10:45;;;;;;;14.87;7.50;;;;;;;14.35;71.22;99895.28;5073115;28;20536;-68
2024/03/11 11:13:16;;;;;;;9.40;5.33;;;;;;;14.44;68.45;99895.94;5072748;28;21015;-69
2024/03/11 11:15:45;;;;;;;9.93;5.93;;;;;;;14.54;68.43;99902.88;5073257;28;20460;-68
2024/03/11 11:18:16;;;;;;;12.77;5.47;;;;;;;14.60;68.44;99893.31;5072924;28;20510;-67
2024/03/11 11:20:46;;;;;;;11.70;5.37;;;;;;;14.79;66.79;99898.97;5072768;28;20432;-67
2024/03/11 11:23:24;;;;;;;12.90;6.10;;;;;;;14.92;66.43;99899.72;5072869;28;20461;-67
2024/03/11 11:25:55;;;;;;;10.17;5.37;;;;;;;15.07;66.32;99898.16;5072720;28;20514;-68
2024/03/11 11:28:26;;;;;;;9.87;5.60;;;;;;;15.09;66.12;99913.03;5072924;28;20436;-68
2024/03/11 11:31:11;;;;;;;9.30;5.27;;;;;;;15.13;65.54;99910.41;5073790;28;20414;-67
2024/03/11 11:33:53;;;;;;;11.17;6.50;;;;;;;15.06;64.71;99915.69;5076608;28;20557;-67
2024/03/11 11:36:57;;;;;;;8.83;5.87;;;;;;;14.84;65.27;99923.25;5076289;28;20437;-67